createdAt,value
2022-12-29T00:01:38.510Z,31.60
2022-12-29T00:04:08.760Z,31.70
2022-12-29T00:06:38.620Z,31.60
2022-12-29T00:09:04.850Z,31.70
2022-12-29T00:11:30.938Z,31.60
2022-12-29T00:14:15.864Z,31.60
2022-12-29T00:16:44.144Z,31.60
2022-12-29T00:19:32.098Z,31.70
2022-12-29T00:22:17.011Z,31.60
2022-12-29T00:25:00.540Z,31.60
2022-12-29T00:27:47.079Z,31.60
2022-12-29T00:30:35.721Z,31.70
2022-12-29T00:33:31.012Z,31.60
2022-12-29T00:36:05.480Z,31.60
2022-12-29T00:38:54.733Z,31.70
2022-12-29T00:41:39.508Z,31.60
2022-12-29T00:44:07.711Z,31.60
2022-12-29T00:46:34.856Z,31.70
2022-12-29T00:49:20.663Z,31.70
2022-12-29T00:51:47.202Z,31.70
2022-12-29T00:54:15.204Z,31.70
2022-12-29T00:56:42.648Z,31.70
2022-12-29T00:59:17.836Z,31.70
2022-12-29T01:01:44.438Z,31.60
2022-12-29T01:04:11.173Z,31.70
2022-12-29T01:06:40.317Z,31.70
2022-12-29T01:09:26.326Z,31.70
2022-12-29T01:11:53.027Z,31.80
2022-12-29T01:14:19.686Z,31.70
2022-12-29T01:16:46.221Z,31.70
2022-12-29T01:19:13.210Z,31.60
2022-12-29T01:21:41.298Z,31.70
2022-12-29T01:24:07.624Z,31.60
2022-12-29T01:26:33.707Z,31.70
2022-12-29T01:28:59.853Z,31.70
2022-12-29T01:31:25.963Z,31.60
2022-12-29T01:33:52.164Z,31.70
2022-12-29T01:36:20.140Z,31.60
2022-12-29T01:38:46.432Z,31.70
2022-12-29T01:41:14.889Z,31.70
2022-12-29T01:43:45.092Z,31.60
2022-12-29T01:46:41.601Z,31.60
2022-12-29T01:49:24.817Z,31.80
2022-12-29T01:52:04.616Z,31.70
2022-12-29T01:54:36.887Z,31.70
2022-12-29T01:57:08.504Z,31.70
2022-12-29T01:59:48.709Z,31.70
2022-12-29T02:02:14.900Z,31.70
2022-12-29T02:04:46.237Z,31.80
2022-12-29T02:07:19.155Z,31.80
2022-12-29T02:09:49.111Z,31.70
2022-12-29T02:12:16.946Z,31.80
2022-12-29T02:14:44.708Z,31.80
2022-12-29T02:17:32.508Z,31.80
2022-12-29T02:20:29.659Z,31.70
2022-12-29T02:23:12.494Z,31.70
2022-12-29T02:25:53.719Z,31.80
2022-12-29T02:28:54.391Z,31.80
2022-12-29T02:31:35.835Z,31.80
2022-12-29T02:34:22.629Z,31.70
2022-12-29T02:37:12.699Z,31.80
2022-12-29T02:39:58.208Z,31.80
2022-12-29T02:42:34.519Z,31.80
2022-12-29T02:45:10.915Z,31.80
2022-12-29T02:47:51.517Z,31.80
2022-12-29T02:50:40.142Z,31.80
2022-12-29T02:53:38.814Z,31.80
2022-12-29T02:56:05.454Z,31.70
2022-12-29T02:58:31.567Z,31.80
2022-12-29T03:01:20.545Z,31.80
2022-12-29T03:04:14.545Z,31.80
2022-12-29T03:07:10.156Z,31.80
2022-12-29T03:09:50.482Z,31.80
2022-12-29T03:12:44.804Z,31.80
2022-12-29T03:15:42.076Z,31.80
2022-12-29T03:18:15.885Z,32.40
2022-12-29T03:20:58.104Z,31.80
2022-12-29T03:23:25.784Z,31.80
2022-12-29T03:25:56.396Z,31.80
2022-12-29T03:28:35.388Z,31.80
2022-12-29T03:31:05.551Z,31.80
2022-12-29T03:33:32.945Z,31.80
2022-12-29T03:36:03.227Z,31.80
2022-12-29T03:38:41.497Z,31.80
2022-12-29T03:41:15.377Z,31.80
2022-12-29T03:43:41.791Z,31.80
2022-12-29T03:46:08.545Z,31.80
2022-12-29T03:48:34.672Z,31.80
2022-12-29T03:51:00.767Z,31.80
2022-12-29T03:53:26.863Z,31.70
2022-12-29T03:55:52.981Z,31.80
2022-12-29T03:58:19.129Z,31.80
2022-12-29T04:00:45.196Z,31.80
2022-12-29T04:03:11.430Z,31.70
2022-12-29T04:05:37.660Z,31.70
2022-12-29T04:08:03.797Z,31.80
2022-12-29T04:10:29.902Z,31.70
2022-12-29T04:12:56.107Z,31.80
2022-12-29T04:15:23.800Z,31.70
2022-12-29T04:17:49.947Z,31.80
2022-12-29T04:20:34.817Z,31.80
2022-12-29T04:23:02.201Z,31.80
2022-12-29T04:25:28.375Z,31.80
2022-12-29T04:27:54.833Z,31.80
2022-12-29T04:30:20.924Z,31.80
2022-12-29T04:32:47.010Z,31.80
2022-12-29T04:35:13.105Z,31.80
2022-12-29T04:37:39.216Z,31.70
2022-12-29T04:40:05.973Z,31.80
2022-12-29T04:42:32.093Z,31.80
2022-12-29T04:44:58.237Z,31.80
2022-12-29T04:47:24.395Z,31.80
2022-12-29T04:49:50.558Z,31.80
2022-12-29T04:52:16.697Z,31.80
2022-12-29T04:54:44.632Z,31.80
2022-12-29T04:57:10.740Z,31.80
2022-12-29T04:59:36.860Z,31.80
2022-12-29T05:02:03.219Z,31.80
2022-12-29T05:04:29.410Z,31.80
2022-12-29T05:06:55.480Z,31.80
2022-12-29T05:09:21.676Z,31.80
2022-12-29T05:11:47.848Z,31.80
2022-12-29T05:14:13.916Z,31.80
2022-12-29T05:16:40.715Z,31.80
2022-12-29T05:19:06.859Z,31.80
2022-12-29T05:21:34.844Z,31.80
2022-12-29T05:24:01.053Z,31.80
2022-12-29T05:26:27.131Z,31.80
2022-12-29T05:28:53.330Z,31.80
2022-12-29T05:31:19.462Z,31.80
2022-12-29T05:33:46.951Z,31.80
2022-12-29T05:36:13.294Z,31.80
2022-12-29T05:38:40.711Z,31.80
2022-12-29T05:41:06.839Z,31.90
2022-12-29T05:43:32.904Z,31.80
2022-12-29T05:46:01.934Z,31.80
2022-12-29T05:48:31.725Z,31.80
2022-12-29T05:51:03.154Z,31.80
2022-12-29T05:53:29.421Z,31.90
2022-12-29T05:55:56.396Z,31.90
2022-12-29T05:58:22.611Z,31.90
2022-12-29T06:00:48.773Z,31.90
2022-12-29T06:03:15.034Z,32.10
2022-12-29T06:05:41.209Z,32.10
2022-12-29T06:08:07.279Z,32.20
2022-12-29T06:10:33.829Z,32.40
2022-12-29T06:12:59.875Z,32.30
2022-12-29T06:15:25.994Z,32.40
2022-12-29T06:17:52.084Z,32.50
2022-12-29T06:20:18.136Z,32.50
2022-12-29T06:22:46.850Z,32.50
2022-12-29T06:25:12.936Z,32.60
2022-12-29T06:27:39.809Z,32.70
2022-12-29T06:30:06.449Z,32.70
2022-12-29T06:32:32.607Z,32.70
2022-12-29T06:34:59.578Z,32.80
2022-12-29T06:37:26.705Z,32.70
2022-12-29T06:39:52.814Z,32.70
2022-12-29T06:42:18.991Z,33.40
2022-12-29T06:44:45.127Z,32.80
2022-12-29T06:47:11.205Z,32.80
2022-12-29T06:49:37.303Z,32.90
2022-12-29T06:52:10.607Z,32.90
2022-12-29T06:54:39.112Z,33.00
2022-12-29T06:57:06.018Z,33.10
2022-12-29T06:59:32.088Z,33.10
2022-12-29T07:01:58.317Z,33.10
2022-12-29T07:04:27.080Z,33.20
2022-12-29T07:06:53.189Z,33.20
2022-12-29T07:09:19.332Z,33.20
2022-12-29T07:11:45.512Z,33.20
2022-12-29T07:14:12.158Z,33.20
2022-12-29T07:16:38.722Z,33.20
2022-12-29T07:19:05.080Z,33.20
2022-12-29T07:21:31.271Z,33.30
2022-12-29T07:23:57.331Z,33.30
2022-12-29T07:26:23.537Z,33.30
2022-12-29T07:28:49.585Z,33.30
2022-12-29T07:31:21.114Z,33.40
2022-12-29T07:33:48.254Z,33.40
2022-12-29T07:36:15.359Z,33.40
2022-12-29T07:38:42.398Z,33.40
2022-12-29T07:41:08.644Z,33.50
2022-12-29T07:43:35.096Z,33.50
2022-12-29T07:46:01.226Z,33.50
2022-12-29T07:48:27.624Z,33.50
2022-12-29T07:50:54.015Z,33.50
2022-12-29T07:53:20.611Z,34.20
2022-12-29T07:55:46.692Z,33.60
2022-12-29T07:58:12.779Z,33.60
2022-12-29T08:00:39.547Z,33.60
2022-12-29T08:03:05.904Z,33.70
2022-12-29T08:05:33.990Z,33.70
2022-12-29T08:08:00.123Z,33.70
2022-12-29T08:10:26.610Z,33.80
2022-12-29T08:12:52.712Z,33.70
2022-12-29T08:15:18.854Z,33.70
2022-12-29T08:17:45.060Z,33.80
2022-12-29T08:20:11.281Z,33.90
2022-12-29T08:22:37.497Z,33.80
2022-12-29T08:25:04.030Z,33.80
2022-12-29T08:27:30.215Z,33.90
2022-12-29T08:29:56.329Z,33.80
2022-12-29T08:32:22.496Z,33.90
2022-12-29T08:34:49.321Z,33.90
2022-12-29T08:37:15.413Z,33.90
2022-12-29T08:39:41.521Z,34.00
2022-12-29T08:42:07.598Z,34.00
2022-12-29T08:44:33.815Z,34.00
2022-12-29T08:47:01.509Z,34.00
2022-12-29T08:49:27.658Z,34.00
2022-12-29T08:51:53.752Z,34.00
2022-12-29T08:54:19.930Z,34.00
2022-12-29T08:56:46.002Z,34.00
2022-12-29T08:59:12.122Z,34.00
2022-12-29T09:01:40.809Z,34.10
2022-12-29T09:04:17.051Z,34.10
2022-12-29T09:06:45.198Z,34.10
2022-12-29T09:09:12.392Z,34.20
2022-12-29T09:11:39.060Z,34.10
2022-12-29T09:14:05.143Z,34.20
2022-12-29T09:16:31.849Z,34.20
2022-12-29T09:18:58.902Z,34.30
2022-12-29T09:21:25.003Z,34.30
2022-12-29T09:23:51.173Z,34.30
2022-12-29T09:26:17.344Z,34.30
2022-12-29T09:28:44.672Z,34.30
2022-12-29T09:31:11.203Z,34.40
2022-12-29T09:33:38.645Z,34.40
2022-12-29T09:36:05.060Z,35.10
2022-12-29T09:38:31.253Z,34.40
2022-12-29T09:41:07.928Z,34.40
2022-12-29T09:43:46.231Z,34.50
2022-12-29T09:46:28.416Z,34.50
2022-12-29T09:49:33.103Z,34.50
2022-12-29T09:52:05.632Z,34.50
2022-12-29T09:54:59.803Z,34.50
2022-12-29T09:57:42.072Z,34.50
2022-12-29T10:00:36.414Z,34.60
2022-12-29T10:03:16.333Z,34.60
2022-12-29T10:06:03.059Z,34.60
2022-12-29T10:08:47.971Z,34.70
2022-12-29T10:11:23.275Z,34.70
2022-12-29T10:14:04.049Z,34.80
2022-12-29T10:16:39.555Z,34.80
2022-12-29T10:19:41.613Z,34.80
2022-12-29T10:22:36.394Z,34.80
2022-12-29T10:25:09.417Z,34.90
2022-12-29T10:27:36.443Z,34.80
2022-12-29T10:30:03.705Z,35.00
2022-12-29T10:32:41.181Z,34.90
2022-12-29T10:35:22.889Z,35.00
2022-12-29T10:38:31.147Z,35.00
2022-12-29T10:41:12.168Z,35.00
2022-12-29T10:43:48.132Z,35.00
2022-12-29T10:46:42.060Z,35.00
2022-12-29T10:49:21.745Z,35.00
2022-12-29T10:51:52.306Z,35.00
2022-12-29T10:54:25.930Z,35.00
2022-12-29T10:57:18.940Z,35.00
2022-12-29T10:59:46.151Z,35.00
2022-12-29T11:02:12.365Z,35.00
2022-12-29T11:05:09.247Z,35.00
2022-12-29T11:07:36.172Z,35.00
2022-12-29T11:10:34.333Z,35.10
2022-12-29T11:13:07.377Z,35.10
2022-12-29T11:16:03.388Z,35.00
2022-12-29T11:18:37.522Z,35.10
2022-12-29T11:21:07.287Z,35.20
2022-12-29T11:23:35.242Z,35.20
2022-12-29T11:26:21.004Z,35.20
2022-12-29T11:29:05.115Z,35.30
2022-12-29T11:31:31.380Z,35.30
2022-12-29T11:33:57.519Z,35.40
2022-12-29T11:36:24.918Z,35.40
2022-12-29T11:38:53.835Z,35.40
2022-12-29T11:41:31.346Z,35.40
2022-12-29T11:44:01.160Z,35.50
2022-12-29T11:46:37.319Z,35.50
2022-12-29T11:49:04.559Z,35.40
2022-12-29T11:51:47.470Z,35.40
2022-12-29T11:54:30.418Z,35.40
2022-12-29T11:56:58.212Z,35.60
2022-12-29T11:59:37.066Z,35.70
2022-12-29T12:02:20.924Z,35.70
2022-12-29T12:04:51.418Z,35.80
2022-12-29T12:07:28.807Z,35.90
2022-12-29T12:10:20.544Z,35.90
2022-12-29T12:12:50.309Z,36.00
2022-12-29T12:15:31.965Z,36.00
2022-12-29T12:18:09.164Z,36.10
2022-12-29T12:20:57.952Z,35.90
2022-12-29T12:23:45.219Z,35.90
2022-12-29T12:26:21.712Z,36.00
2022-12-29T12:29:00.090Z,36.00
2022-12-29T12:31:47.503Z,36.00
2022-12-29T12:34:34.253Z,36.10
2022-12-29T12:37:20.347Z,36.00
2022-12-29T12:40:30.609Z,36.10
2022-12-29T12:43:10.859Z,36.10
2022-12-29T12:45:55.412Z,36.10
2022-12-29T12:48:27.332Z,36.10
2022-12-29T12:51:00.966Z,36.20
2022-12-29T12:53:27.015Z,36.20
2022-12-29T12:56:10.443Z,36.20
2022-12-29T12:58:42.643Z,36.30
2022-12-29T13:01:30.465Z,36.30
2022-12-29T13:04:27.916Z,37.00
2022-12-29T13:07:12.874Z,36.30
2022-12-29T13:10:06.782Z,36.00
2022-12-29T13:12:44.851Z,36.30
2022-12-29T13:15:19.895Z,36.40
2022-12-29T13:18:29.609Z,36.40
2022-12-29T13:21:16.403Z,36.50
2022-12-29T13:24:13.392Z,36.60
2022-12-29T13:26:53.827Z,36.60
2022-12-29T13:29:23.289Z,36.60
2022-12-29T13:32:14.546Z,36.60
2022-12-29T13:34:53.446Z,36.70
2022-12-29T13:37:24.362Z,36.80
2022-12-29T13:39:56.000Z,36.80
2022-12-29T13:42:23.900Z,36.80
2022-12-29T13:45:02.119Z,36.80
2022-12-29T13:47:34.457Z,36.80
2022-12-29T13:50:03.032Z,36.80
2022-12-29T13:53:02.592Z,36.90
2022-12-29T13:55:58.153Z,36.80
2022-12-29T13:59:05.232Z,36.80
2022-12-29T14:01:55.884Z,36.90
2022-12-29T14:04:27.600Z,36.90
2022-12-29T14:07:06.323Z,36.90
2022-12-29T14:09:47.127Z,37.00
2022-12-29T14:12:33.583Z,37.00
2022-12-29T14:15:21.133Z,37.10
2022-12-29T14:18:15.327Z,37.00
2022-12-29T14:21:08.822Z,37.00
2022-12-29T14:23:34.843Z,37.10
2022-12-29T14:26:06.724Z,37.10
2022-12-29T14:28:38.420Z,37.10
2022-12-29T14:31:19.507Z,37.10
2022-12-29T14:34:11.516Z,37.10
2022-12-29T14:36:40.453Z,37.10
2022-12-29T14:39:35.271Z,37.20
2022-12-29T14:42:12.859Z,37.10
2022-12-29T14:45:25.161Z,37.20
2022-12-29T14:47:53.176Z,37.20
2022-12-29T14:50:42.294Z,37.20
2022-12-29T14:53:42.348Z,37.20
2022-12-29T14:56:11.535Z,37.20
2022-12-29T14:58:52.385Z,37.20
2022-12-29T15:01:33.819Z,37.20
2022-12-29T15:04:13.291Z,37.20
2022-12-29T15:06:42.087Z,37.20
2022-12-29T15:09:31.365Z,37.20
2022-12-29T15:12:04.833Z,37.20
2022-12-29T15:14:37.282Z,37.20
2022-12-29T15:17:30.377Z,37.20
2022-12-29T15:19:58.257Z,37.20
2022-12-29T15:22:25.683Z,37.20
2022-12-29T15:24:53.969Z,37.40
2022-12-29T15:27:23.874Z,37.20
2022-12-29T15:30:02.596Z,37.20
2022-12-29T15:32:48.230Z,37.20
2022-12-29T15:35:34.753Z,37.20
2022-12-29T15:38:15.280Z,37.90
2022-12-29T15:40:44.562Z,37.20
2022-12-29T15:43:35.097Z,37.20
2022-12-29T15:46:02.343Z,37.20
2022-12-29T15:48:28.952Z,37.20
2022-12-29T15:50:55.355Z,37.20
2022-12-29T15:53:30.176Z,37.20
2022-12-29T15:56:16.993Z,37.20
2022-12-29T15:58:49.169Z,37.20
2022-12-29T16:01:30.202Z,37.10
2022-12-29T16:04:01.352Z,37.10
2022-12-29T16:06:33.476Z,37.00
2022-12-29T16:09:18.047Z,36.80
2022-12-29T16:11:57.368Z,36.70
2022-12-29T16:14:32.531Z,36.60
2022-12-29T16:17:02.151Z,36.50
2022-12-29T16:20:17.159Z,36.30
2022-12-29T16:22:48.904Z,36.20
2022-12-29T16:25:32.357Z,36.20
2022-12-29T16:28:02.711Z,36.10
2022-12-29T16:30:34.135Z,36.10
2022-12-29T16:33:06.119Z,36.00
2022-12-29T16:35:43.598Z,35.90
2022-12-29T16:38:23.455Z,35.90
2022-12-29T16:41:02.349Z,35.80
2022-12-29T16:43:34.967Z,35.70
2022-12-29T16:46:01.076Z,35.60
2022-12-29T16:48:30.372Z,35.50
2022-12-29T16:51:19.472Z,35.60
2022-12-29T16:53:53.863Z,35.50
2022-12-29T16:56:24.480Z,35.50
2022-12-29T16:58:54.675Z,35.40
2022-12-29T17:01:21.416Z,35.40
2022-12-29T17:03:54.936Z,35.40
2022-12-29T17:06:22.541Z,35.30
2022-12-29T17:08:50.555Z,35.20
2022-12-29T17:12:00.298Z,35.20
2022-12-29T17:14:44.373Z,35.90
2022-12-29T17:17:48.825Z,35.10
2022-12-29T17:20:26.721Z,35.10
2022-12-29T17:22:53.570Z,35.10
2022-12-29T17:25:23.451Z,35.10
2022-12-29T17:28:02.002Z,35.10
2022-12-29T17:30:36.179Z,35.10
2022-12-29T17:33:05.553Z,35.00
2022-12-29T17:35:31.734Z,35.00
2022-12-29T17:37:57.911Z,35.00
2022-12-29T17:40:29.076Z,35.00
2022-12-29T17:42:57.745Z,35.00
2022-12-29T17:45:31.762Z,35.00
2022-12-29T17:48:02.235Z,35.00
2022-12-29T17:50:30.591Z,35.00
2022-12-29T17:53:03.427Z,34.90
2022-12-29T17:55:37.268Z,35.00
2022-12-29T17:58:28.103Z,34.90
2022-12-29T18:00:59.840Z,34.90
2022-12-29T18:03:31.830Z,34.80
2022-12-29T18:05:58.662Z,34.60
2022-12-29T18:08:24.794Z,34.70
2022-12-29T18:10:53.206Z,34.70
2022-12-29T18:13:21.217Z,34.70
2022-12-29T18:15:47.638Z,34.70
2022-12-29T18:18:17.083Z,34.70
2022-12-29T18:20:45.407Z,34.60
2022-12-29T18:23:24.576Z,34.60
2022-12-29T18:25:56.284Z,34.60
2022-12-29T18:28:24.328Z,34.60
2022-12-29T18:30:51.187Z,34.60
2022-12-29T18:33:22.619Z,34.60
2022-12-29T18:35:56.326Z,34.50
2022-12-29T18:38:22.694Z,34.50
2022-12-29T18:40:49.296Z,34.50
2022-12-29T18:43:17.465Z,34.50
2022-12-29T18:45:45.439Z,34.50
2022-12-29T18:48:17.145Z,34.50
2022-12-29T18:50:44.108Z,34.50
2022-12-29T18:53:16.364Z,34.50
2022-12-29T18:55:42.431Z,34.50
2022-12-29T18:58:08.531Z,34.50
2022-12-29T19:00:34.634Z,34.40
2022-12-29T19:03:00.835Z,34.50
2022-12-29T19:05:35.253Z,34.50
2022-12-29T19:08:01.509Z,34.40
2022-12-29T19:10:28.079Z,34.50
2022-12-29T19:12:54.166Z,34.40
2022-12-29T19:15:22.168Z,34.40
2022-12-29T19:18:16.210Z,34.40
2022-12-29T19:20:41.549Z,34.30
2022-12-29T19:23:12.068Z,34.30
2022-12-29T19:25:39.555Z,34.30
2022-12-29T19:28:06.883Z,34.30
2022-12-29T19:30:35.684Z,34.30
2022-12-29T19:33:09.483Z,34.40
2022-12-29T19:35:36.006Z,34.30
2022-12-29T19:38:02.704Z,34.30
2022-12-29T19:40:29.601Z,34.30
2022-12-29T19:42:56.735Z,34.30
2022-12-29T19:45:22.849Z,34.30
2022-12-29T19:47:48.898Z,34.30
2022-12-29T19:50:16.557Z,34.30
2022-12-29T19:52:44.346Z,34.30
2022-12-29T19:55:14.889Z,34.30
2022-12-29T19:57:41.561Z,34.20
2022-12-29T20:00:08.580Z,34.20
2022-12-29T20:02:34.865Z,34.30
2022-12-29T20:05:01.368Z,34.30
2022-12-29T20:07:28.192Z,34.20
2022-12-29T20:09:54.575Z,34.30
2022-12-29T20:12:24.412Z,34.20
2022-12-29T20:14:55.929Z,34.20
2022-12-29T20:17:27.379Z,34.20
2022-12-29T20:20:08.394Z,34.20
2022-12-29T20:22:34.474Z,34.20
2022-12-29T20:25:34.718Z,34.20
2022-12-29T20:27:46.621Z,34.20
2022-12-29T20:30:12.803Z,34.20
2022-12-29T20:32:38.957Z,34.20
2022-12-29T20:35:05.226Z,34.10
2022-12-29T20:37:31.293Z,34.20
2022-12-29T20:39:57.800Z,34.80
2022-12-29T20:42:23.873Z,34.30
2022-12-29T20:44:50.205Z,34.10
2022-12-29T20:47:16.266Z,34.10
2022-12-29T20:49:42.376Z,34.20
2022-12-29T20:52:08.504Z,34.20
2022-12-29T20:54:39.024Z,34.10
2022-12-29T20:57:05.806Z,34.20
2022-12-29T20:59:31.914Z,34.20
2022-12-29T21:01:58.315Z,34.30
2022-12-29T21:04:25.303Z,34.20
2022-12-29T21:06:51.440Z,34.20
2022-12-29T21:09:17.648Z,34.20
2022-12-29T21:11:43.802Z,34.20
2022-12-29T21:14:13.210Z,34.20
2022-12-29T21:16:39.328Z,34.20
2022-12-29T21:19:05.487Z,34.10
2022-12-29T21:21:31.694Z,34.20
2022-12-29T21:24:04.586Z,34.10
2022-12-29T21:26:32.236Z,34.10
2022-12-29T21:28:58.340Z,34.10
2022-12-29T21:31:29.596Z,34.10
2022-12-29T21:33:57.509Z,34.20
2022-12-29T21:36:24.041Z,34.10
2022-12-29T21:38:51.224Z,34.20
2022-12-29T21:41:17.878Z,34.10
2022-12-29T21:44:14.393Z,34.10
2022-12-29T21:46:43.236Z,34.10
2022-12-29T21:49:09.462Z,34.10
2022-12-29T21:51:51.719Z,34.20
2022-12-29T21:54:45.227Z,34.10
2022-12-29T21:57:33.531Z,34.10
2022-12-29T22:00:18.478Z,34.10
2022-12-29T22:03:04.705Z,34.10
2022-12-29T22:05:49.678Z,34.10
2022-12-29T22:08:34.512Z,34.10
2022-12-29T22:11:23.786Z,34.10
2022-12-29T22:13:54.967Z,34.10
2022-12-29T22:16:23.245Z,34.10
2022-12-29T22:18:49.725Z,34.10
2022-12-29T22:21:15.951Z,34.10
2022-12-29T22:23:43.957Z,34.10
2022-12-29T22:26:12.497Z,34.10
2022-12-29T22:28:40.890Z,34.10
2022-12-29T22:31:24.411Z,34.10
2022-12-29T22:33:50.598Z,34.10
2022-12-29T22:36:16.681Z,34.10
2022-12-29T22:38:42.921Z,34.10
2022-12-29T22:41:09.137Z,34.10
2022-12-29T22:43:35.260Z,34.10
2022-12-29T22:46:03.603Z,34.10
2022-12-29T22:48:34.119Z,34.10
2022-12-29T22:51:01.028Z,34.10
2022-12-29T22:53:27.270Z,34.10
2022-12-29T22:56:09.343Z,34.10
2022-12-29T22:58:38.315Z,34.10
2022-12-29T23:01:04.916Z,34.10
2022-12-29T23:03:31.017Z,34.10
2022-12-29T23:05:58.829Z,34.10
2022-12-29T23:08:25.795Z,34.10
2022-12-29T23:10:52.224Z,34.10
2022-12-29T23:13:18.691Z,34.10
2022-12-29T23:15:45.566Z,34.10
2022-12-29T23:18:11.741Z,34.10
2022-12-29T23:20:38.412Z,34.10
2022-12-29T23:23:04.545Z,34.10
2022-12-29T23:25:31.194Z,34.80
2022-12-29T23:27:57.312Z,34.10
2022-12-29T23:30:23.370Z,34.00
2022-12-29T23:32:49.470Z,34.00
2022-12-29T23:35:15.559Z,34.10
2022-12-29T23:37:41.635Z,34.00
2022-12-29T23:40:08.131Z,34.10
2022-12-29T23:42:34.204Z,34.10
2022-12-29T23:45:01.960Z,34.10
2022-12-29T23:47:28.034Z,34.00
2022-12-29T23:49:54.095Z,34.00
2022-12-29T23:52:20.274Z,34.00
2022-12-29T23:54:46.326Z,34.10
2022-12-29T23:57:12.398Z,34.10
2022-12-29T23:59:40.476Z,34.10
